sensor_id;sensor_type;location;lat;lon;timestamp;P1;durP1;ratioP1;P2;durP2;ratioP2
6785;SDS011;3430;51.192;6.048;2023-07-16T00:01:43;1.83;;;1.50;;
6785;SDS011;3430;51.192;6.048;2023-07-16T00:04:08;1.50;;;1.40;;
6785;SDS011;3430;51.192;6.048;2023-07-16T00:06:33;2.57;;;1.80;;
6785;SDS011;3430;51.192;6.048;2023-07-16T00:08:59;1.47;;;1.37;;
6785;SDS011;3430;51.192;6.048;2023-07-16T00:11:24;1.60;;;1.50;;
6785;SDS011;3430;51.192;6.048;2023-07-16T00:13:49;2.07;;;1.80;;
6785;SDS011;3430;51.192;6.048;2023-07-16T00:16:15;2.27;;;1.50;;
6785;SDS011;3430;51.192;6.048;2023-07-16T00:18:46;1.50;;;1.30;;
6785;SDS011;3430;51.192;6.048;2023-07-16T00:21:12;1.57;;;1.47;;
6785;SDS011;3430;51.192;6.048;2023-07-16T00:23:37;3.40;;;1.80;;
6785;SDS011;3430;51.192;6.048;2023-07-16T00:26:02;3.83;;;1.60;;
6785;SDS011;3430;51.192;6.048;2023-07-16T00:28:28;1.70;;;1.40;;
6785;SDS011;3430;51.192;6.048;2023-07-16T00:30:53;1.30;;;1.20;;
6785;SDS011;3430;51.192;6.048;2023-07-16T00:33:18;1.97;;;1.50;;
6785;SDS011;3430;51.192;6.048;2023-07-16T00:35:47;2.63;;;1.60;;
6785;SDS011;3430;51.192;6.048;2023-07-16T00:38:13;2.03;;;1.83;;
6785;SDS011;3430;51.192;6.048;2023-07-16T00:40:38;1.63;;;1.27;;
6785;SDS011;3430;51.192;6.048;2023-07-16T00:43:04;1.50;;;1.40;;
6785;SDS011;3430;51.192;6.048;2023-07-16T00:45:29;2.00;;;1.47;;
6785;SDS011;3430;51.192;6.048;2023-07-16T00:47:54;2.43;;;1.50;;
6785;SDS011;3430;51.192;6.048;2023-07-16T00:50:20;1.50;;;1.40;;
6785;SDS011;3430;51.192;6.048;2023-07-16T00:52:45;2.10;;;1.57;;
6785;SDS011;3430;51.192;6.048;2023-07-16T00:55:11;1.70;;;1.60;;
6785;SDS011;3430;51.192;6.048;2023-07-16T00:57:37;2.60;;;1.67;;
6785;SDS011;3430;51.192;6.048;2023-07-16T01:00:03;1.50;;;1.30;;
6785;SDS011;3430;51.192;6.048;2023-07-16T01:02:28;1.70;;;1.60;;
6785;SDS011;3430;51.192;6.048;2023-07-16T01:04:54;2.47;;;1.63;;
6785;SDS011;3430;51.192;6.048;2023-07-16T01:07:19;4.40;;;1.60;;
6785;SDS011;3430;51.192;6.048;2023-07-16T01:09:47;2.10;;;1.60;;
6785;SDS011;3430;51.192;6.048;2023-07-16T01:12:12;3.17;;;1.50;;
6785;SDS011;3430;51.192;6.048;2023-07-16T01:14:38;1.43;;;1.33;;
6785;SDS011;3430;51.192;6.048;2023-07-16T01:17:04;1.77;;;1.40;;
6785;SDS011;3430;51.192;6.048;2023-07-16T01:19:31;2.00;;;1.50;;
6785;SDS011;3430;51.192;6.048;2023-07-16T01:22:07;1.87;;;1.73;;
6785;SDS011;3430;51.192;6.048;2023-07-16T01:29:29;3.10;;;1.50;;
6785;SDS011;3430;51.192;6.048;2023-07-16T01:31:56;1.70;;;1.60;;
6785;SDS011;3430;51.192;6.048;2023-07-16T01:34:23;1.90;;;1.53;;
6785;SDS011;3430;51.192;6.048;2023-07-16T01:36:49;2.00;;;1.60;;
6785;SDS011;3430;51.192;6.048;2023-07-16T01:39:15;2.60;;;1.60;;
6785;SDS011;3430;51.192;6.048;2023-07-16T01:41:41;2.87;;;1.83;;
6785;SDS011;3430;51.192;6.048;2023-07-16T01:44:06;1.60;;;1.43;;
6785;SDS011;3430;51.192;6.048;2023-07-16T01:46:31;3.13;;;1.80;;
6785;SDS011;3430;51.192;6.048;2023-07-16T01:48:57;2.00;;;1.40;;
6785;SDS011;3430;51.192;6.048;2023-07-16T01:51:22;2.00;;;1.80;;
6785;SDS011;3430;51.192;6.048;2023-07-16T01:53:47;2.43;;;1.47;;
6785;SDS011;3430;51.192;6.048;2023-07-16T01:56:13;2.67;;;1.60;;
6785;SDS011;3430;51.192;6.048;2023-07-16T01:58:38;2.20;;;2.00;;
6785;SDS011;3430;51.192;6.048;2023-07-16T02:01:03;2.03;;;1.70;;
6785;SDS011;3430;51.192;6.048;2023-07-16T02:03:29;2.00;;;1.43;;
6785;SDS011;3430;51.192;6.048;2023-07-16T02:05:54;1.53;;;1.40;;
6785;SDS011;3430;51.192;6.048;2023-07-16T02:08:19;1.83;;;1.47;;
6785;SDS011;3430;51.192;6.048;2023-07-16T02:10:46;2.60;;;1.63;;
6785;SDS011;3430;51.192;6.048;2023-07-16T02:13:12;2.10;;;1.57;;
6785;SDS011;3430;51.192;6.048;2023-07-16T02:15:37;1.73;;;1.40;;
6785;SDS011;3430;51.192;6.048;2023-07-16T02:18:03;3.20;;;1.60;;
6785;SDS011;3430;51.192;6.048;2023-07-16T02:20:29;2.07;;;1.67;;
6785;SDS011;3430;51.192;6.048;2023-07-16T02:22:54;1.70;;;1.40;;
6785;SDS011;3430;51.192;6.048;2023-07-16T02:25:20;2.87;;;1.70;;
6785;SDS011;3430;51.192;6.048;2023-07-16T02:27:45;1.70;;;1.50;;
6785;SDS011;3430;51.192;6.048;2023-07-16T02:30:10;1.93;;;1.53;;
6785;SDS011;3430;51.192;6.048;2023-07-16T02:32:39;1.97;;;1.73;;
6785;SDS011;3430;51.192;6.048;2023-07-16T02:35:05;1.60;;;1.50;;
6785;SDS011;3430;51.192;6.048;2023-07-16T02:37:30;2.17;;;1.50;;
6785;SDS011;3430;51.192;6.048;2023-07-16T02:39:56;3.73;;;1.57;;
6785;SDS011;3430;51.192;6.048;2023-07-16T02:42:21;1.73;;;1.50;;
6785;SDS011;3430;51.192;6.048;2023-07-16T02:44:46;1.50;;;1.40;;
6785;SDS011;3430;51.192;6.048;2023-07-16T02:47:12;2.70;;;2.10;;
6785;SDS011;3430;51.192;6.048;2023-07-16T02:49:38;1.70;;;1.60;;
6785;SDS011;3430;51.192;6.048;2023-07-16T02:52:03;3.13;;;1.73;;
6785;SDS011;3430;51.192;6.048;2023-07-16T02:54:29;1.90;;;1.70;;
6785;SDS011;3430;51.192;6.048;2023-07-16T02:56:54;1.73;;;1.63;;
6785;SDS011;3430;51.192;6.048;2023-07-16T02:59:19;1.60;;;1.50;;
6785;SDS011;3430;51.192;6.048;2023-07-16T03:01:45;2.03;;;1.50;;
6785;SDS011;3430;51.192;6.048;2023-07-16T03:04:10;3.73;;;1.63;;
6785;SDS011;3430;51.192;6.048;2023-07-16T03:06:36;1.80;;;1.50;;
6785;SDS011;3430;51.192;6.048;2023-07-16T03:09:01;1.83;;;1.60;;
6785;SDS011;3430;51.192;6.048;2023-07-16T03:11:26;1.63;;;1.53;;
6785;SDS011;3430;51.192;6.048;2023-07-16T03:13:52;2.40;;;1.70;;
6785;SDS011;3430;51.192;6.048;2023-07-16T03:16:17;2.33;;;1.60;;
6785;SDS011;3430;51.192;6.048;2023-07-16T03:18:44;3.37;;;1.60;;
6785;SDS011;3430;51.192;6.048;2023-07-16T03:21:09;1.97;;;1.77;;
6785;SDS011;3430;51.192;6.048;2023-07-16T03:23:34;2.40;;;1.60;;
6785;SDS011;3430;51.192;6.048;2023-07-16T03:26:00;2.10;;;1.90;;
6785;SDS011;3430;51.192;6.048;2023-07-16T03:28:25;2.00;;;1.80;;
6785;SDS011;3430;51.192;6.048;2023-07-16T03:30:50;2.90;;;1.67;;
6785;SDS011;3430;51.192;6.048;2023-07-16T03:33:17;2.07;;;1.40;;
6785;SDS011;3430;51.192;6.048;2023-07-16T03:35:45;3.27;;;1.60;;
6785;SDS011;3430;51.192;6.048;2023-07-16T03:38:11;1.93;;;1.60;;
6785;SDS011;3430;51.192;6.048;2023-07-16T03:40:36;3.03;;;1.60;;
6785;SDS011;3430;51.192;6.048;2023-07-16T03:43:02;1.90;;;1.70;;
6785;SDS011;3430;51.192;6.048;2023-07-16T03:45:29;2.27;;;1.70;;
6785;SDS011;3430;51.192;6.048;2023-07-16T03:47:55;3.73;;;1.57;;
6785;SDS011;3430;51.192;6.048;2023-07-16T03:50:20;2.60;;;1.80;;
6785;SDS011;3430;51.192;6.048;2023-07-16T03:52:45;1.83;;;1.60;;
6785;SDS011;3430;51.192;6.048;2023-07-16T03:55:14;1.67;;;1.57;;
6785;SDS011;3430;51.192;6.048;2023-07-16T03:57:39;5.53;;;1.60;;
6785;SDS011;3430;51.192;6.048;2023-07-16T04:00:05;2.00;;;1.77;;
6785;SDS011;3430;51.192;6.048;2023-07-16T04:02:33;1.90;;;1.67;;
6785;SDS011;3430;51.192;6.048;2023-07-16T04:04:58;2.90;;;1.53;;
6785;SDS011;3430;51.192;6.048;2023-07-16T04:07:23;2.10;;;1.90;;
6785;SDS011;3430;51.192;6.048;2023-07-16T04:09:49;1.80;;;1.70;;
6785;SDS011;3430;51.192;6.048;2023-07-16T04:12:14;3.47;;;1.80;;
6785;SDS011;3430;51.192;6.048;2023-07-16T04:14:39;2.40;;;1.53;;
6785;SDS011;3430;51.192;6.048;2023-07-16T04:17:05;3.20;;;2.57;;
6785;SDS011;3430;51.192;6.048;2023-07-16T04:19:30;1.90;;;1.70;;
6785;SDS011;3430;51.192;6.048;2023-07-16T04:21:56;1.90;;;1.77;;
6785;SDS011;3430;51.192;6.048;2023-07-16T04:24:21;4.03;;;1.90;;
6785;SDS011;3430;51.192;6.048;2023-07-16T04:26:46;3.57;;;1.67;;
6785;SDS011;3430;51.192;6.048;2023-07-16T04:29:12;2.87;;;2.10;;
6785;SDS011;3430;51.192;6.048;2023-07-16T04:31:37;4.03;;;1.70;;
6785;SDS011;3430;51.192;6.048;2023-07-16T04:34:02;3.03;;;1.80;;
6785;SDS011;3430;51.192;6.048;2023-07-16T04:36:28;2.83;;;1.80;;
6785;SDS011;3430;51.192;6.048;2023-07-16T04:38:53;2.27;;;1.80;;
6785;SDS011;3430;51.192;6.048;2023-07-16T04:41:19;3.63;;;1.90;;
6785;SDS011;3430;51.192;6.048;2023-07-16T04:43:44;3.63;;;2.10;;
6785;SDS011;3430;51.192;6.048;2023-07-16T04:46:09;2.80;;;1.83;;
6785;SDS011;3430;51.192;6.048;2023-07-16T04:48:36;2.60;;;1.77;;
6785;SDS011;3430;51.192;6.048;2023-07-16T04:51:01;2.27;;;1.93;;
6785;SDS011;3430;51.192;6.048;2023-07-16T04:53:26;2.20;;;1.83;;
6785;SDS011;3430;51.192;6.048;2023-07-16T04:55:52;4.90;;;1.80;;
6785;SDS011;3430;51.192;6.048;2023-07-16T04:58:17;2.67;;;2.30;;
6785;SDS011;3430;51.192;6.048;2023-07-16T05:00:42;4.67;;;2.53;;
6785;SDS011;3430;51.192;6.048;2023-07-16T05:03:07;2.23;;;1.80;;
6785;SDS011;3430;51.192;6.048;2023-07-16T05:05:33;3.63;;;2.33;;
6785;SDS011;3430;51.192;6.048;2023-07-16T05:07:58;3.63;;;2.20;;
6785;SDS011;3430;51.192;6.048;2023-07-16T05:10:23;3.30;;;1.97;;
6785;SDS011;3430;51.192;6.048;2023-07-16T05:12:49;2.60;;;1.90;;
6785;SDS011;3430;51.192;6.048;2023-07-16T05:15:14;3.87;;;1.80;;
6785;SDS011;3430;51.192;6.048;2023-07-16T05:17:40;5.30;;;2.37;;
6785;SDS011;3430;51.192;6.048;2023-07-16T05:20:05;2.17;;;1.93;;
6785;SDS011;3430;51.192;6.048;2023-07-16T05:22:31;3.77;;;2.20;;
6785;SDS011;3430;51.192;6.048;2023-07-16T05:24:56;1.77;;;1.67;;
6785;SDS011;3430;51.192;6.048;2023-07-16T05:27:21;2.97;;;2.10;;
6785;SDS011;3430;51.192;6.048;2023-07-16T05:29:47;4.93;;;2.33;;
6785;SDS011;3430;51.192;6.048;2023-07-16T05:32:12;3.37;;;2.20;;
6785;SDS011;3430;51.192;6.048;2023-07-16T05:34:38;3.67;;;2.13;;
6785;SDS011;3430;51.192;6.048;2023-07-16T05:37:03;3.33;;;2.20;;
6785;SDS011;3430;51.192;6.048;2023-07-16T05:39:29;3.00;;;2.07;;
6785;SDS011;3430;51.192;6.048;2023-07-16T05:41:54;2.60;;;1.87;;
6785;SDS011;3430;51.192;6.048;2023-07-16T05:44:19;3.77;;;2.20;;
6785;SDS011;3430;51.192;6.048;2023-07-16T05:46:45;2.70;;;2.10;;
6785;SDS011;3430;51.192;6.048;2023-07-16T05:49:10;3.67;;;2.27;;
6785;SDS011;3430;51.192;6.048;2023-07-16T05:51:35;2.33;;;2.00;;
6785;SDS011;3430;51.192;6.048;2023-07-16T05:54:01;3.97;;;2.83;;
6785;SDS011;3430;51.192;6.048;2023-07-16T05:56:26;5.60;;;2.30;;
6785;SDS011;3430;51.192;6.048;2023-07-16T05:58:51;3.73;;;2.57;;
6785;SDS011;3430;51.192;6.048;2023-07-16T06:01:17;4.37;;;2.50;;
6785;SDS011;3430;51.192;6.048;2023-07-16T06:03:42;3.70;;;2.60;;
6785;SDS011;3430;51.192;6.048;2023-07-16T06:06:10;5.13;;;2.73;;
6785;SDS011;3430;51.192;6.048;2023-07-16T06:08:35;4.23;;;2.80;;
6785;SDS011;3430;51.192;6.048;2023-07-16T06:11:01;4.67;;;2.97;;
6785;SDS011;3430;51.192;6.048;2023-07-16T06:13:26;5.13;;;2.80;;
6785;SDS011;3430;51.192;6.048;2023-07-16T06:15:51;8.77;;;3.03;;
6785;SDS011;3430;51.192;6.048;2023-07-16T06:18:16;5.93;;;2.80;;
6785;SDS011;3430;51.192;6.048;2023-07-16T06:20:45;3.27;;;2.67;;
6785;SDS011;3430;51.192;6.048;2023-07-16T06:23:11;5.83;;;3.17;;
6785;SDS011;3430;51.192;6.048;2023-07-16T06:25:37;4.73;;;3.30;;
6785;SDS011;3430;51.192;6.048;2023-07-16T06:28:05;6.03;;;3.23;;
6785;SDS011;3430;51.192;6.048;2023-07-16T06:30:31;5.67;;;3.50;;
6785;SDS011;3430;51.192;6.048;2023-07-16T06:32:58;5.17;;;2.70;;
6785;SDS011;3430;51.192;6.048;2023-07-16T06:35:26;6.57;;;2.90;;
6785;SDS011;3430;51.192;6.048;2023-07-16T06:37:51;5.67;;;3.20;;
6785;SDS011;3430;51.192;6.048;2023-07-16T06:40:17;5.03;;;3.40;;
6785;SDS011;3430;51.192;6.048;2023-07-16T06:42:42;5.77;;;3.37;;
6785;SDS011;3430;51.192;6.048;2023-07-16T06:45:08;5.73;;;3.50;;
6785;SDS011;3430;51.192;6.048;2023-07-16T06:47:36;5.60;;;3.33;;
6785;SDS011;3430;51.192;6.048;2023-07-16T06:50:02;4.53;;;3.17;;
6785;SDS011;3430;51.192;6.048;2023-07-16T06:52:28;5.47;;;3.10;;
6785;SDS011;3430;51.192;6.048;2023-07-16T06:54:54;9.13;;;3.07;;
6785;SDS011;3430;51.192;6.048;2023-07-16T06:57:20;5.37;;;3.47;;
6785;SDS011;3430;51.192;6.048;2023-07-16T06:59:45;6.17;;;3.53;;
6785;SDS011;3430;51.192;6.048;2023-07-16T07:02:11;9.73;;;4.60;;
6785;SDS011;3430;51.192;6.048;2023-07-16T07:04:37;7.20;;;3.30;;
6785;SDS011;3430;51.192;6.048;2023-07-16T07:07:08;6.30;;;3.20;;
6785;SDS011;3430;51.192;6.048;2023-07-16T07:09:36;5.43;;;3.50;;
6785;SDS011;3430;51.192;6.048;2023-07-16T07:12:05;5.93;;;3.87;;
6785;SDS011;3430;51.192;6.048;2023-07-16T07:14:32;5.73;;;3.50;;
6785;SDS011;3430;51.192;6.048;2023-07-16T07:17:03;6.60;;;3.57;;
6785;SDS011;3430;51.192;6.048;2023-07-16T07:19:28;6.40;;;3.23;;
6785;SDS011;3430;51.192;6.048;2023-07-16T07:21:57;5.03;;;4.17;;
6785;SDS011;3430;51.192;6.048;2023-07-16T07:24:23;5.23;;;3.47;;
6785;SDS011;3430;51.192;6.048;2023-07-16T07:26:48;5.43;;;3.60;;
6785;SDS011;3430;51.192;6.048;2023-07-16T07:29:14;10.63;;;4.30;;
6785;SDS011;3430;51.192;6.048;2023-07-16T07:31:40;8.73;;;3.53;;
6785;SDS011;3430;51.192;6.048;2023-07-16T07:34:05;5.53;;;3.90;;
6785;SDS011;3430;51.192;6.048;2023-07-16T07:36:34;4.57;;;3.27;;
6785;SDS011;3430;51.192;6.048;2023-07-16T07:39:07;6.07;;;3.63;;
6785;SDS011;3430;51.192;6.048;2023-07-16T07:41:34;7.87;;;4.33;;
6785;SDS011;3430;51.192;6.048;2023-07-16T07:43:59;6.90;;;3.47;;
6785;SDS011;3430;51.192;6.048;2023-07-16T07:46:25;5.00;;;3.47;;
6785;SDS011;3430;51.192;6.048;2023-07-16T07:48:51;6.80;;;3.90;;
6785;SDS011;3430;51.192;6.048;2023-07-16T07:51:16;8.80;;;4.23;;
6785;SDS011;3430;51.192;6.048;2023-07-16T07:53:45;4.00;;;3.40;;
6785;SDS011;3430;51.192;6.048;2023-07-16T07:56:10;7.73;;;3.90;;
6785;SDS011;3430;51.192;6.048;2023-07-16T07:58:41;5.97;;;3.73;;
6785;SDS011;3430;51.192;6.048;2023-07-16T08:01:09;6.80;;;3.80;;
6785;SDS011;3430;51.192;6.048;2023-07-16T08:03:35;8.50;;;3.90;;
6785;SDS011;3430;51.192;6.048;2023-07-16T08:06:03;5.87;;;4.07;;
6785;SDS011;3430;51.192;6.048;2023-07-16T08:08:37;5.53;;;3.03;;
6785;SDS011;3430;51.192;6.048;2023-07-16T08:11:05;6.97;;;3.90;;
6785;SDS011;3430;51.192;6.048;2023-07-16T08:13:31;7.00;;;3.43;;
6785;SDS011;3430;51.192;6.048;2023-07-16T08:16:00;9.00;;;3.80;;
6785;SDS011;3430;51.192;6.048;2023-07-16T08:18:25;5.13;;;3.63;;
6785;SDS011;3430;51.192;6.048;2023-07-16T08:20:51;4.10;;;3.70;;
6785;SDS011;3430;51.192;6.048;2023-07-16T08:23:17;6.50;;;4.03;;
6785;SDS011;3430;51.192;6.048;2023-07-16T08:25:42;8.77;;;3.53;;
6785;SDS011;3430;51.192;6.048;2023-07-16T08:28:11;6.03;;;3.53;;
6785;SDS011;3430;51.192;6.048;2023-07-16T08:30:40;5.60;;;3.90;;
6785;SDS011;3430;51.192;6.048;2023-07-16T08:33:08;4.83;;;3.47;;
6785;SDS011;3430;51.192;6.048;2023-07-16T08:35:34;5.87;;;3.30;;
6785;SDS011;3430;51.192;6.048;2023-07-16T08:38:02;7.47;;;3.57;;
6785;SDS011;3430;51.192;6.048;2023-07-16T08:40:28;5.73;;;3.70;;
6785;SDS011;3430;51.192;6.048;2023-07-16T08:42:53;5.13;;;3.37;;
6785;SDS011;3430;51.192;6.048;2023-07-16T08:45:20;7.03;;;3.80;;
6785;SDS011;3430;51.192;6.048;2023-07-16T08:47:46;5.53;;;3.77;;
6785;SDS011;3430;51.192;6.048;2023-07-16T08:50:15;6.40;;;3.60;;
6785;SDS011;3430;51.192;6.048;2023-07-16T08:52:41;7.00;;;3.60;;
6785;SDS011;3430;51.192;6.048;2023-07-16T08:55:08;8.00;;;3.73;;
6785;SDS011;3430;51.192;6.048;2023-07-16T08:57:33;8.13;;;3.70;;
6785;SDS011;3430;51.192;6.048;2023-07-16T08:59:59;7.37;;;3.73;;
6785;SDS011;3430;51.192;6.048;2023-07-16T09:02:25;7.23;;;3.83;;
6785;SDS011;3430;51.192;6.048;2023-07-16T09:04:50;5.73;;;3.47;;
6785;SDS011;3430;51.192;6.048;2023-07-16T09:07:17;6.67;;;3.83;;
6785;SDS011;3430;51.192;6.048;2023-07-16T09:09:42;6.43;;;3.47;;
6785;SDS011;3430;51.192;6.048;2023-07-16T09:12:13;6.97;;;3.43;;
6785;SDS011;3430;51.192;6.048;2023-07-16T09:14:42;6.07;;;3.80;;
6785;SDS011;3430;51.192;6.048;2023-07-16T09:17:09;7.17;;;3.57;;
6785;SDS011;3430;51.192;6.048;2023-07-16T09:19:37;5.60;;;3.57;;
6785;SDS011;3430;51.192;6.048;2023-07-16T09:22:03;4.77;;;3.10;;
6785;SDS011;3430;51.192;6.048;2023-07-16T09:24:31;6.00;;;3.30;;
6785;SDS011;3430;51.192;6.048;2023-07-16T09:26:57;5.20;;;3.47;;
6785;SDS011;3430;51.192;6.048;2023-07-16T09:29:24;4.53;;;3.33;;
6785;SDS011;3430;51.192;6.048;2023-07-16T09:34:20;4.47;;;3.07;;
6785;SDS011;3430;51.192;6.048;2023-07-16T09:36:49;5.77;;;3.40;;
6785;SDS011;3430;51.192;6.048;2023-07-16T09:39:17;5.97;;;3.57;;
6785;SDS011;3430;51.192;6.048;2023-07-16T09:41:45;6.60;;;3.80;;
6785;SDS011;3430;51.192;6.048;2023-07-16T09:44:11;5.37;;;3.37;;
6785;SDS011;3430;51.192;6.048;2023-07-16T09:46:40;4.97;;;3.10;;
6785;SDS011;3430;51.192;6.048;2023-07-16T09:49:06;4.73;;;3.40;;
6785;SDS011;3430;51.192;6.048;2023-07-16T09:51:38;5.03;;;3.80;;
6785;SDS011;3430;51.192;6.048;2023-07-16T09:54:04;6.50;;;3.87;;
6785;SDS011;3430;51.192;6.048;2023-07-16T09:56:39;7.10;;;3.30;;
6785;SDS011;3430;51.192;6.048;2023-07-16T09:59:08;6.83;;;3.43;;
6785;SDS011;3430;51.192;6.048;2023-07-16T10:01:36;3.70;;;2.93;;
6785;SDS011;3430;51.192;6.048;2023-07-16T10:06:59;5.93;;;3.70;;
6785;SDS011;3430;51.192;6.048;2023-07-16T10:09:38;4.83;;;2.73;;
6785;SDS011;3430;51.192;6.048;2023-07-16T10:14:41;4.60;;;3.47;;
6785;SDS011;3430;51.192;6.048;2023-07-16T10:17:07;6.73;;;3.10;;
6785;SDS011;3430;51.192;6.048;2023-07-16T10:19:48;6.93;;;4.07;;
6785;SDS011;3430;51.192;6.048;2023-07-16T10:22:14;4.40;;;3.27;;
6785;SDS011;3430;51.192;6.048;2023-07-16T10:24:40;5.20;;;3.40;;
6785;SDS011;3430;51.192;6.048;2023-07-16T10:27:06;6.30;;;3.30;;
6785;SDS011;3430;51.192;6.048;2023-07-16T10:29:32;5.00;;;3.53;;
6785;SDS011;3430;51.192;6.048;2023-07-16T10:32:00;7.00;;;3.60;;
6785;SDS011;3430;51.192;6.048;2023-07-16T10:34:27;4.30;;;3.30;;
6785;SDS011;3430;51.192;6.048;2023-07-16T10:36:52;6.07;;;3.07;;
6785;SDS011;3430;51.192;6.048;2023-07-16T10:39:21;4.83;;;3.20;;
6785;SDS011;3430;51.192;6.048;2023-07-16T10:41:49;4.53;;;3.50;;
6785;SDS011;3430;51.192;6.048;2023-07-16T10:44:15;5.60;;;3.63;;
6785;SDS011;3430;51.192;6.048;2023-07-16T10:46:44;5.43;;;3.00;;
6785;SDS011;3430;51.192;6.048;2023-07-16T10:49:09;5.03;;;3.67;;
6785;SDS011;3430;51.192;6.048;2023-07-16T10:51:35;3.70;;;2.97;;
6785;SDS011;3430;51.192;6.048;2023-07-16T10:54:01;5.53;;;3.37;;
6785;SDS011;3430;51.192;6.048;2023-07-16T10:56:30;4.17;;;3.13;;
6785;SDS011;3430;51.192;6.048;2023-07-16T10:58:58;4.97;;;2.87;;
6785;SDS011;3430;51.192;6.048;2023-07-16T11:01:24;5.10;;;3.47;;
6785;SDS011;3430;51.192;6.048;2023-07-16T11:03:50;8.77;;;3.27;;
6785;SDS011;3430;51.192;6.048;2023-07-16T11:06:16;5.23;;;3.00;;
6785;SDS011;3430;51.192;6.048;2023-07-16T11:08:43;3.90;;;3.10;;
6785;SDS011;3430;51.192;6.048;2023-07-16T11:11:08;5.77;;;2.90;;
6785;SDS011;3430;51.192;6.048;2023-07-16T11:13:34;3.53;;;3.03;;
6785;SDS011;3430;51.192;6.048;2023-07-16T11:16:09;4.43;;;2.83;;
6785;SDS011;3430;51.192;6.048;2023-07-16T11:18:34;4.53;;;3.13;;
6785;SDS011;3430;51.192;6.048;2023-07-16T11:21:00;4.07;;;3.37;;
6785;SDS011;3430;51.192;6.048;2023-07-16T11:23:25;10.90;;;3.13;;
6785;SDS011;3430;51.192;6.048;2023-07-16T11:25:52;4.33;;;2.93;;
6785;SDS011;3430;51.192;6.048;2023-07-16T11:28:20;5.70;;;3.50;;
6785;SDS011;3430;51.192;6.048;2023-07-16T11:30:45;6.57;;;3.30;;
6785;SDS011;3430;51.192;6.048;2023-07-16T11:33:13;5.50;;;2.60;;
6785;SDS011;3430;51.192;6.048;2023-07-16T11:35:39;4.97;;;2.97;;
6785;SDS011;3430;51.192;6.048;2023-07-16T11:38:05;3.13;;;2.50;;
6785;SDS011;3430;51.192;6.048;2023-07-16T11:40:37;3.47;;;2.90;;
6785;SDS011;3430;51.192;6.048;2023-07-16T11:43:10;4.17;;;3.10;;
6785;SDS011;3430;51.192;6.048;2023-07-16T11:45:35;3.83;;;3.03;;
6785;SDS011;3430;51.192;6.048;2023-07-16T11:48:01;5.77;;;2.93;;
6785;SDS011;3430;51.192;6.048;2023-07-16T11:50:28;4.40;;;2.80;;
6785;SDS011;3430;51.192;6.048;2023-07-16T11:52:55;4.50;;;2.73;;
6785;SDS011;3430;51.192;6.048;2023-07-16T11:55:21;4.00;;;2.80;;
6785;SDS011;3430;51.192;6.048;2023-07-16T11:57:49;4.07;;;2.97;;
6785;SDS011;3430;51.192;6.048;2023-07-16T12:00:17;3.60;;;2.40;;
6785;SDS011;3430;51.192;6.048;2023-07-16T12:02:42;4.47;;;3.40;;
6785;SDS011;3430;51.192;6.048;2023-07-16T12:05:08;3.30;;;2.83;;
6785;SDS011;3430;51.192;6.048;2023-07-16T12:07:37;4.00;;;2.93;;
6785;SDS011;3430;51.192;6.048;2023-07-16T12:10:05;3.90;;;2.97;;
6785;SDS011;3430;51.192;6.048;2023-07-16T12:12:34;4.20;;;3.10;;
6785;SDS011;3430;51.192;6.048;2023-07-16T12:15:03;2.67;;;2.47;;
6785;SDS011;3430;51.192;6.048;2023-07-16T12:17:29;3.77;;;2.87;;
6785;SDS011;3430;51.192;6.048;2023-07-16T12:19:55;4.60;;;2.80;;
6785;SDS011;3430;51.192;6.048;2023-07-16T12:22:23;3.10;;;2.80;;
6785;SDS011;3430;51.192;6.048;2023-07-16T12:24:52;5.73;;;3.03;;
6785;SDS011;3430;51.192;6.048;2023-07-16T12:27:17;3.47;;;2.50;;
6785;SDS011;3430;51.192;6.048;2023-07-16T12:29:46;5.60;;;3.40;;
6785;SDS011;3430;51.192;6.048;2023-07-16T12:32:15;6.37;;;3.10;;
6785;SDS011;3430;51.192;6.048;2023-07-16T12:34:40;4.23;;;2.97;;
6785;SDS011;3430;51.192;6.048;2023-07-16T12:37:06;3.47;;;2.87;;
6785;SDS011;3430;51.192;6.048;2023-07-16T12:39:32;3.40;;;2.70;;
6785;SDS011;3430;51.192;6.048;2023-07-16T12:41:58;3.60;;;2.83;;
6785;SDS011;3430;51.192;6.048;2023-07-16T12:44:23;4.77;;;3.33;;
6785;SDS011;3430;51.192;6.048;2023-07-16T12:46:49;3.67;;;2.73;;
6785;SDS011;3430;51.192;6.048;2023-07-16T12:49:17;5.03;;;2.60;;
6785;SDS011;3430;51.192;6.048;2023-07-16T12:51:43;4.27;;;2.83;;
6785;SDS011;3430;51.192;6.048;2023-07-16T12:54:08;3.40;;;2.93;;
6785;SDS011;3430;51.192;6.048;2023-07-16T12:56:37;3.80;;;3.20;;
6785;SDS011;3430;51.192;6.048;2023-07-16T12:59:04;3.50;;;2.80;;
6785;SDS011;3430;51.192;6.048;2023-07-16T13:01:29;3.30;;;2.73;;
6785;SDS011;3430;51.192;6.048;2023-07-16T13:03:58;3.00;;;2.70;;
6785;SDS011;3430;51.192;6.048;2023-07-16T13:06:24;4.63;;;3.30;;
6785;SDS011;3430;51.192;6.048;2023-07-16T13:08:49;4.17;;;2.83;;
6785;SDS011;3430;51.192;6.048;2023-07-16T13:11:15;3.60;;;2.93;;
6785;SDS011;3430;51.192;6.048;2023-07-16T13:13:41;3.57;;;2.77;;
6785;SDS011;3430;51.192;6.048;2023-07-16T13:16:08;6.00;;;3.00;;
6785;SDS011;3430;51.192;6.048;2023-07-16T13:18:34;3.47;;;2.40;;
6785;SDS011;3430;51.192;6.048;2023-07-16T13:21:02;4.53;;;2.67;;
6785;SDS011;3430;51.192;6.048;2023-07-16T13:23:28;3.20;;;2.57;;
6785;SDS011;3430;51.192;6.048;2023-07-16T13:25:54;4.70;;;3.00;;
6785;SDS011;3430;51.192;6.048;2023-07-16T13:28:20;3.73;;;2.93;;
6785;SDS011;3430;51.192;6.048;2023-07-16T13:30:46;6.50;;;3.07;;
6785;SDS011;3430;51.192;6.048;2023-07-16T13:33:18;3.23;;;2.93;;
6785;SDS011;3430;51.192;6.048;2023-07-16T13:35:50;4.27;;;2.57;;
6785;SDS011;3430;51.192;6.048;2023-07-16T13:38:16;4.20;;;2.93;;
6785;SDS011;3430;51.192;6.048;2023-07-16T13:40:41;4.50;;;2.70;;
6785;SDS011;3430;51.192;6.048;2023-07-16T13:43:07;3.83;;;2.50;;
6785;SDS011;3430;51.192;6.048;2023-07-16T13:45:33;3.73;;;2.93;;
6785;SDS011;3430;51.192;6.048;2023-07-16T13:48:01;4.57;;;2.80;;
6785;SDS011;3430;51.192;6.048;2023-07-16T13:50:27;4.33;;;2.87;;
6785;SDS011;3430;51.192;6.048;2023-07-16T13:52:52;5.73;;;2.40;;
6785;SDS011;3430;51.192;6.048;2023-07-16T13:55:18;4.43;;;2.60;;
6785;SDS011;3430;51.192;6.048;2023-07-16T13:57:46;3.90;;;2.40;;
6785;SDS011;3430;51.192;6.048;2023-07-16T14:00:12;4.87;;;2.57;;
6785;SDS011;3430;51.192;6.048;2023-07-16T14:02:37;3.47;;;3.07;;
6785;SDS011;3430;51.192;6.048;2023-07-16T14:05:03;3.83;;;2.63;;
6785;SDS011;3430;51.192;6.048;2023-07-16T14:07:29;4.43;;;3.00;;
6785;SDS011;3430;51.192;6.048;2023-07-16T14:09:55;3.80;;;2.80;;
6785;SDS011;3430;51.192;6.048;2023-07-16T14:12:23;4.60;;;2.97;;
6785;SDS011;3430;51.192;6.048;2023-07-16T14:14:49;4.67;;;2.47;;
6785;SDS011;3430;51.192;6.048;2023-07-16T14:17:14;3.57;;;2.37;;
6785;SDS011;3430;51.192;6.048;2023-07-16T14:19:40;3.93;;;2.73;;
6785;SDS011;3430;51.192;6.048;2023-07-16T14:22:08;4.47;;;3.03;;
6785;SDS011;3430;51.192;6.048;2023-07-16T14:24:38;3.27;;;2.30;;
6785;SDS011;3430;51.192;6.048;2023-07-16T14:27:11;4.57;;;2.57;;
6785;SDS011;3430;51.192;6.048;2023-07-16T14:29:39;4.50;;;2.90;;
6785;SDS011;3430;51.192;6.048;2023-07-16T14:32:06;2.97;;;2.23;;
6785;SDS011;3430;51.192;6.048;2023-07-16T14:34:37;3.43;;;2.60;;
6785;SDS011;3430;51.192;6.048;2023-07-16T14:37:06;3.50;;;2.93;;
6785;SDS011;3430;51.192;6.048;2023-07-16T14:39:41;3.60;;;2.60;;
6785;SDS011;3430;51.192;6.048;2023-07-16T14:42:06;4.17;;;2.73;;
6785;SDS011;3430;51.192;6.048;2023-07-16T14:44:38;3.33;;;2.77;;
6785;SDS011;3430;51.192;6.048;2023-07-16T14:47:04;4.80;;;2.87;;
6785;SDS011;3430;51.192;6.048;2023-07-16T14:49:29;5.83;;;2.70;;
6785;SDS011;3430;51.192;6.048;2023-07-16T14:51:56;3.63;;;2.00;;
6785;SDS011;3430;51.192;6.048;2023-07-16T14:54:21;6.30;;;2.77;;
6785;SDS011;3430;51.192;6.048;2023-07-16T14:56:47;4.23;;;2.60;;
6785;SDS011;3430;51.192;6.048;2023-07-16T14:59:13;2.83;;;2.50;;
6785;SDS011;3430;51.192;6.048;2023-07-16T15:01:38;3.27;;;2.90;;
6785;SDS011;3430;51.192;6.048;2023-07-16T15:04:04;4.23;;;2.67;;
6785;SDS011;3430;51.192;6.048;2023-07-16T15:06:41;4.53;;;2.80;;
6785;SDS011;3430;51.192;6.048;2023-07-16T15:09:07;4.10;;;2.60;;
6785;SDS011;3430;51.192;6.048;2023-07-16T15:11:32;3.13;;;2.43;;
6785;SDS011;3430;51.192;6.048;2023-07-16T15:13:59;5.17;;;2.40;;
6785;SDS011;3430;51.192;6.048;2023-07-16T15:16:27;3.87;;;1.97;;
6785;SDS011;3430;51.192;6.048;2023-07-16T15:18:53;2.63;;;2.27;;
6785;SDS011;3430;51.192;6.048;2023-07-16T15:21:19;3.97;;;2.73;;
6785;SDS011;3430;51.192;6.048;2023-07-16T15:23:44;2.73;;;2.23;;